Time;durP1;ratioP1;P1;durP2;ratioP2;P2;SDS_P1;SDS_P2;PMS_P1;PMS_P2;Temp;Humidity;BMP_temperature;BMP_pressure;BME280_temperature;BME280_humidity;BME280_pressure;Samples;Min_cycle;Max_cycle;Signal;HPM_P1;HPM_P2
2021/03/02 00:00:23;;;;;;;394.38;49.10;;;8.40;99.90;;;;;;5069182;28;20438;-86
2021/03/02 00:02:49;;;;;;;148.50;41.67;;;8.30;99.90;;;;;;5070019;28;20036;-84
2021/03/02 00:05:15;;;;;;;120.82;41.63;;;8.30;99.90;;;;;;5069838;28;20028;-85
2021/03/02 00:07:41;;;;;;;140.10;45.90;;;8.30;99.90;;;;;;5051609;28;20028;-86
2021/03/02 00:10:12;;;;;;;172.75;44.92;;;8.30;99.90;;;;;;5068023;28;20032;-86
2021/03/02 00:12:39;;;;;;;163.13;44.92;;;8.40;99.90;;;;;;5052011;28;20039;-83
2021/03/02 00:15:07;;;;;;;154.48;42.05;;;8.50;99.90;;;;;;5068087;28;20386;-86
2021/03/02 00:17:46;;;;;;;195.67;44.20;;;8.50;99.90;;;;;;5068604;28;20461;-87
2021/03/02 00:20:19;;;;;;;184.73;44.25;;;8.40;99.90;;;;;;5068410;28;20024;-85
2021/03/02 00:22:58;;;;;;;162.52;42.95;;;8.40;99.90;;;;;;5068353;28;20029;-84
2021/03/02 00:25:53;;;;;;;167.40;40.70;;;8.40;99.90;;;;;;5069034;28;20407;-84
2021/03/02 00:28:22;;;;;;;160.90;38.15;;;8.40;99.90;;;;;;5065506;28;20119;-85
2021/03/02 00:30:49;;;;;;;496.00;49.78;;;8.40;99.90;;;;;;5050729;28;20037;-84
2021/03/02 00:33:15;;;;;;;230.88;41.30;;;8.40;99.90;;;;;;5067957;28;20387;-84
2021/03/02 00:35:41;;;;;;;159.38;40.53;;;8.30;99.90;;;;;;5034320;28;20021;-86
2021/03/02 00:38:07;;;;;;;302.88;43.05;;;8.20;99.90;;;;;;5034280;28;20487;-86
2021/03/02 00:40:32;;;;;;;226.73;39.50;;;8.20;99.90;;;;;;5067594;28;20033;-84
2021/03/02 00:42:58;;;;;;;293.35;41.30;;;8.10;99.90;;;;;;5051060;28;20242;-85
2021/03/02 00:45:24;;;;;;;208.35;38.80;;;8.10;99.90;;;;;;5067814;28;20070;-85
2021/03/02 00:47:50;;;;;;;359.95;40.47;;;8.10;99.90;;;;;;5050850;28;20029;-87
2021/03/02 00:50:17;;;;;;;450.85;45.33;;;8.10;99.90;;;;;;5050318;28;20510;-82
2021/03/02 00:52:42;;;;;;;239.18;39.30;;;8.00;99.90;;;;;;5050521;28;20048;-84
2021/03/02 00:55:08;;;;;;;481.25;50.13;;;8.00;99.90;;;;;;5050368;28;20063;-85
2021/03/02 00:57:34;;;;;;;156.50;39.47;;;8.00;99.90;;;;;;5051032;28;20024;-84
2021/03/02 01:00:00;;;;;;;231.10;36.58;;;8.00;99.90;;;;;;5067521;28;20348;-84
2021/03/02 01:02:26;;;;;;;182.80;36.08;;;8.00;99.90;;;;;;5067652;28;20032;-84
2021/03/02 01:04:52;;;;;;;258.80;35.60;;;8.00;99.90;;;;;;5034348;28;20035;-85
2021/03/02 01:07:18;;;;;;;211.35;34.65;;;8.00;99.90;;;;;;5067435;28;20033;-85
2021/03/02 01:09:44;;;;;;;236.88;34.25;;;8.00;99.90;;;;;;5068608;28;20544;-84
2021/03/02 01:12:10;;;;;;;196.95;34.08;;;7.90;99.90;;;;;;5050872;28;20031;-84
2021/03/02 01:14:36;;;;;;;215.48;33.65;;;7.90;99.90;;;;;;5050975;28;20372;-83
2021/03/02 01:17:02;;;;;;;176.73;33.92;;;7.90;99.90;;;;;;5067357;28;20017;-85
2021/03/02 01:19:28;;;;;;;171.43;33.97;;;7.80;99.90;;;;;;5068317;28;20425;-84
2021/03/02 01:21:53;;;;;;;118.72;31.13;;;7.80;99.90;;;;;;5069469;28;20111;-83
2021/03/02 01:24:19;;;;;;;148.90;31.45;;;7.80;99.90;;;;;;5068203;28;20418;-85
2021/03/02 01:26:45;;;;;;;183.65;30.13;;;7.80;99.90;;;;;;5068378;28;20033;-84
2021/03/02 01:29:11;;;;;;;146.23;29.73;;;7.70;99.90;;;;;;5071845;28;20033;-84
2021/03/02 01:31:36;;;;;;;129.27;31.70;;;7.70;99.90;;;;;;5071108;28;20024;-85
2021/03/02 01:34:02;;;;;;;206.60;32.35;;;7.70;99.90;;;;;;5072755;28;20499;-86
2021/03/02 01:36:29;;;;;;;104.45;29.25;;;7.70;99.90;;;;;;5071815;28;20051;-85
2021/03/02 01:38:54;;;;;;;122.47;30.33;;;7.70;99.90;;;;;;5073486;28;20039;-83
2021/03/02 01:41:20;;;;;;;149.98;30.83;;;7.60;99.90;;;;;;5054766;28;20032;-85
2021/03/02 01:43:46;;;;;;;124.30;29.80;;;7.60;99.90;;;;;;5072236;28;20482;-86
2021/03/02 01:46:12;;;;;;;146.63;31.10;;;7.60;99.90;;;;;;5054900;28;20048;-83
2021/03/02 01:48:39;;;;;;;93.47;29.90;;;7.60;99.90;;;;;;5071194;28;20500;-86
2021/03/02 01:51:07;;;;;;;139.63;32.28;;;7.60;99.90;;;;;;5055703;28;20044;-83
2021/03/02 01:53:33;;;;;;;125.38;31.65;;;7.60;99.90;;;;;;5054831;28;20052;-84
2021/03/02 01:56:00;;;;;;;118.10;30.05;;;7.60;99.90;;;;;;5072566;28;20028;-85
2021/03/02 01:58:26;;;;;;;127.35;31.77;;;7.50;99.90;;;;;;5071881;28;20066;-84
2021/03/02 02:01:04;;;;;;;110.78;27.92;;;7.50;99.90;;;;;;5039449;28;20039;-84
2021/03/02 02:03:45;;;;;;;121.95;27.00;;;7.50;99.90;;;;;;5071657;28;20383;-84
2021/03/02 02:06:25;;;;;;;154.25;29.60;;;7.50;99.90;;;;;;5070656;28;20052;-85
2021/03/02 02:09:09;;;;;;;120.07;27.27;;;7.40;99.90;;;;;;5070674;28;20497;-83
2021/03/02 02:12:07;;;;;;;113.57;25.73;;;7.40;99.90;;;;;;5070750;28;20111;-85
2021/03/02 02:15:01;;;;;;;97.53;29.00;;;7.30;99.90;;;;;;5071116;28;20070;-85
2021/03/02 02:17:36;;;;;;;77.30;25.35;;;7.30;99.90;;;;;;5070908;28;20028;-86
2021/03/02 02:20:21;;;;;;;75.57;26.08;;;7.30;99.90;;;;;;5071151;28;20021;-85
2021/03/02 02:23:07;;;;;;;89.40;28.85;;;7.30;99.90;;;;;;5071842;28;20483;-83
2021/03/02 02:25:56;;;;;;;145.98;26.67;;;7.30;99.90;;;;;;5071898;28;20040;-83
2021/03/02 02:28:25;;;;;;;116.73;27.87;;;7.30;99.90;;;;;;5071845;28;20054;-86
2021/03/02 02:30:55;;;;;;;100.32;25.88;;;7.30;99.90;;;;;;5054186;28;20036;-85
2021/03/02 02:33:23;;;;;;;119.95;25.80;;;7.20;99.90;;;;;;5070055;28;20215;-85
2021/03/02 02:35:50;;;;;;;103.78;26.83;;;7.20;99.90;;;;;;5053381;28;20173;-84
2021/03/02 02:38:19;;;;;;;169.35;28.00;;;7.20;99.90;;;;;;5052577;28;20108;-85
2021/03/02 02:40:45;;;;;;;101.63;27.13;;;7.00;99.90;;;;;;5069865;28;20017;-84
2021/03/02 02:43:12;;;;;;;146.43;27.92;;;6.90;99.90;;;;;;5036039;28;20031;-86
2021/03/02 02:45:38;;;;;;;157.75;29.88;;;6.90;99.90;;;;;;5053064;28;20119;-84
2021/03/02 02:48:06;;;;;;;130.90;26.05;;;6.80;99.90;;;;;;5069337;28;20025;-83
2021/03/02 02:50:32;;;;;;;131.05;26.85;;;6.80;99.90;;;;;;5035534;28;20040;-83
2021/03/02 02:52:59;;;;;;;165.73;29.95;;;6.80;99.90;;;;;;5068896;28;20078;-85
2021/03/02 02:55:47;;;;;;;123.47;25.45;;;6.80;99.90;;;;;;5051764;28;20495;-82
2021/03/02 02:58:16;;;;;;;205.88;28.23;;;6.90;99.90;;;;;;5069052;28;20041;-83
2021/03/02 03:00:43;;;;;;;126.65;26.90;;;6.80;99.90;;;;;;5069525;28;20085;-82
2021/03/02 03:03:12;;;;;;;122.40;25.30;;;6.70;99.90;;;;;;5069872;28;20034;-83
2021/03/02 03:05:44;;;;;;;85.13;26.17;;;6.70;99.90;;;;;;5068893;28;20467;-84
2021/03/02 03:08:18;;;;;;;107.53;26.50;;;6.70;99.90;;;;;;5069012;28;20123;-83
2021/03/02 03:10:47;;;;;;;203.05;28.35;;;6.80;99.90;;;;;;5069017;28;20028;-84
2021/03/02 03:13:18;;;;;;;139.25;26.83;;;6.80;99.90;;;;;;5068718;28;20016;-83
2021/03/02 03:15:49;;;;;;;98.43;23.75;;;6.80;99.90;;;;;;5052610;28;20069;-82
2021/03/02 03:18:20;;;;;;;84.93;25.75;;;6.70;99.90;;;;;;5069873;28;20021;-87
2021/03/02 03:20:49;;;;;;;136.52;27.13;;;6.70;99.90;;;;;;5069203;28;20038;-86
2021/03/02 03:23:15;;;;;;;113.38;27.20;;;6.70;99.90;;;;;;5068851;28;20028;-84
2021/03/02 03:25:41;;;;;;;184.52;27.45;;;6.80;99.90;;;;;;5042738;28;744455;-85
2021/03/02 03:28:08;;;;;;;180.00;28.42;;;6.80;99.90;;;;;;5052571;28;20025;-83
2021/03/02 03:30:35;;;;;;;316.88;32.95;;;6.70;99.90;;;;;;5035654;28;20040;-83
2021/03/02 03:33:05;;;;;;;247.82;27.83;;;6.60;99.90;;;;;;5052743;28;20505;-85
2021/03/02 03:35:32;;;;;;;526.15;34.08;;;6.50;99.90;;;;;;5069277;28;20534;-84
2021/03/02 03:37:58;;;;;;;105.03;25.90;;;6.50;99.90;;;;;;5070293;28;20497;-85
2021/03/02 03:40:24;;;;;;;96.63;24.38;;;6.50;99.90;;;;;;5035881;28;20033;-83
2021/03/02 03:42:50;;;;;;;183.50;26.55;;;6.50;99.90;;;;;;5068581;28;20016;-84
2021/03/02 03:45:16;;;;;;;356.02;28.90;;;6.50;99.90;;;;;;5052401;28;20052;-85
2021/03/02 03:47:42;;;;;;;326.08;29.40;;;6.50;99.90;;;;;;5070192;28;20395;-85
2021/03/02 03:50:09;;;;;;;183.43;26.05;;;6.50;99.90;;;;;;5051685;28;20031;-83
2021/03/02 03:52:39;;;;;;;152.13;26.08;;;6.50;99.90;;;;;;5068783;28;20020;-86
2021/03/02 03:55:07;;;;;;;343.05;27.55;;;6.50;99.90;;;;;;5068550;28;20095;-83
2021/03/02 03:57:34;;;;;;;134.40;22.95;;;6.40;99.90;;;;;;5068969;28;20024;-84
2021/03/02 04:00:01;;;;;;;178.40;23.05;;;6.30;99.90;;;;;;5069310;28;20119;-84
2021/03/02 04:02:29;;;;;;;424.98;31.63;;;6.30;99.90;;;;;;5068988;28;20032;-84
2021/03/02 04:04:55;;;;;;;162.52;20.75;;;6.30;99.90;;;;;;5051931;28;20031;-84
2021/03/02 04:07:21;;;;;;;106.05;20.40;;;6.30;99.90;;;;;;5052425;28;20025;-83
2021/03/02 04:09:47;;;;;;;168.63;22.48;;;6.30;99.90;;;;;;5035712;28;20066;-83
2021/03/02 04:12:13;;;;;;;171.55;19.60;;;6.30;99.90;;;;;;5052888;28;20020;-84
2021/03/02 04:14:41;;;;;;;127.03;19.42;;;6.30;99.90;;;;;;5052552;28;20071;-85
2021/03/02 04:17:10;;;;;;;151.98;19.67;;;6.20;99.90;;;;;;5051881;28;20029;-83
2021/03/02 04:19:36;;;;;;;65.38;18.40;;;6.10;99.90;;;;;;5068008;28;20402;-84
2021/03/02 04:22:03;;;;;;;159.07;21.48;;;6.10;99.90;;;;;;5068597;28;20033;-84
2021/03/02 04:24:29;;;;;;;191.93;22.95;;;6.10;99.90;;;;;;5034932;28;20068;-85
2021/03/02 04:26:55;;;;;;;228.70;23.13;;;6.10;99.90;;;;;;5051672;28;20083;-85
2021/03/02 04:29:21;;;;;;;234.60;22.15;;;6.10;99.90;;;;;;5067624;28;20032;-83
2021/03/02 04:31:47;;;;;;;209.13;22.80;;;6.00;99.90;;;;;;5051250;28;20086;-84
2021/03/02 04:34:13;;;;;;;422.27;27.73;;;6.00;99.90;;;;;;5069379;28;20017;-83
2021/03/02 04:36:38;;;;;;;339.48;25.25;;;5.90;99.90;;;;;;5067867;28;20428;-86
2021/03/02 04:39:04;;;;;;;406.80;27.23;;;5.90;99.90;;;;;;5051049;28;20024;-84
2021/03/02 04:41:30;;;;;;;116.93;20.73;;;5.90;99.90;;;;;;5067722;28;20113;-84
2021/03/02 04:43:56;;;;;;;239.25;23.90;;;5.90;99.90;;;;;;5067950;28;20120;-84
2021/03/02 04:46:21;;;;;;;234.98;23.25;;;5.90;99.90;;;;;;5067727;28;20033;-85
2021/03/02 04:48:48;;;;;;;189.85;22.42;;;6.00;99.90;;;;;;5050790;28;20414;-84
2021/03/02 04:51:14;;;;;;;139.27;23.17;;;5.90;99.90;;;;;;5068825;28;20078;-83
2021/03/02 04:53:40;;;;;;;167.02;23.20;;;6.00;99.90;;;;;;5051433;28;20032;-84
2021/03/02 04:56:06;;;;;;;120.13;23.42;;;6.00;99.90;;;;;;5051087;28;20506;-83
2021/03/02 04:58:31;;;;;;;171.18;23.88;;;6.00;99.90;;;;;;5050871;28;20039;-84
2021/03/02 05:00:57;;;;;;;130.57;23.13;;;6.00;99.90;;;;;;5034504;28;20039;-85
2021/03/02 05:03:23;;;;;;;131.98;21.88;;;5.90;99.90;;;;;;5050908;28;20039;-83
2021/03/02 05:05:48;;;;;;;182.68;24.08;;;5.90;99.90;;;;;;5067201;28;20090;-85
2021/03/02 05:08:14;;;;;;;98.07;23.30;;;5.90;99.90;;;;;;5050825;28;20028;-84
2021/03/02 05:10:40;;;;;;;79.03;20.63;;;5.90;99.90;;;;;;5034330;28;20035;-83
2021/03/02 05:13:06;;;;;;;147.55;22.60;;;6.00;99.90;;;;;;5067359;28;20534;-86
2021/03/02 05:15:31;;;;;;;123.72;21.40;;;5.90;99.90;;;;;;5033921;28;20033;-83
2021/03/02 05:17:57;;;;;;;92.60;20.02;;;5.90;99.90;;;;;;5050428;28;20102;-83
2021/03/02 05:20:23;;;;;;;119.13;20.67;;;5.80;99.90;;;;;;5034061;28;20042;-85
2021/03/02 05:22:48;;;;;;;64.57;19.80;;;5.70;99.90;;;;;;5034573;28;20024;-84
2021/03/02 05:25:14;;;;;;;92.07;19.58;;;5.70;99.90;;;;;;5067251;28;20084;-83
2021/03/02 05:27:40;;;;;;;124.47;20.33;;;5.70;99.90;;;;;;5067492;28;20090;-84
2021/03/02 05:30:06;;;;;;;105.43;20.10;;;5.70;99.90;;;;;;5050369;28;20048;-84
2021/03/02 05:32:32;;;;;;;85.40;19.67;;;5.70;99.90;;;;;;5050709;28;20479;-84
2021/03/02 05:34:57;;;;;;;103.88;18.73;;;5.70;99.90;;;;;;5051338;28;20082;-85
2021/03/02 05:37:23;;;;;;;123.15;18.80;;;5.70;99.90;;;;;;5066914;28;20028;-85
2021/03/02 05:39:49;;;;;;;116.00;19.27;;;5.70;99.90;;;;;;5067150;28;20379;-85
2021/03/02 05:42:14;;;;;;;117.60;20.15;;;5.60;99.90;;;;;;5050262;28;20442;-83
2021/03/02 05:44:40;;;;;;;163.27;21.08;;;5.60;99.90;;;;;;5033756;28;20032;-84
2021/03/02 05:47:08;;;;;;;97.10;17.90;;;5.60;99.90;;;;;;5050499;28;20068;-84
2021/03/02 05:49:34;;;;;;;163.13;20.50;;;5.50;99.90;;;;;;5067238;28;20112;-83
2021/03/02 05:52:01;;;;;;;69.47;17.10;;;5.40;99.90;;;;;;5050350;28;20028;-84
2021/03/02 05:54:27;;;;;;;86.72;16.73;;;5.40;99.90;;;;;;5034063;28;20055;-84
2021/03/02 05:56:53;;;;;;;160.20;21.20;;;5.40;99.90;;;;;;5050450;28;20390;-85
2021/03/02 05:59:18;;;;;;;34.00;17.60;;;5.40;99.90;;;;;;5050545;28;20128;-86
2021/03/02 06:01:44;;;;;;;58.60;17.02;;;5.40;99.90;;;;;;5068840;28;20385;-84
2021/03/02 06:04:16;;;;;;;106.15;19.80;;;5.40;99.90;;;;;;5049929;28;20454;-84
2021/03/02 06:06:42;;;;;;;115.13;19.52;;;5.50;99.90;;;;;;5050708;28;20094;-83
2021/03/02 06:09:09;;;;;;;147.82;19.98;;;5.50;99.90;;;;;;5033580;28;20048;-82
2021/03/02 06:11:36;;;;;;;116.45;20.08;;;5.50;99.90;;;;;;5066953;28;20024;-85
2021/03/02 06:14:22;;;;;;;52.78;16.40;;;5.50;99.90;;;;;;5070969;28;20387;-84
2021/03/02 06:16:50;;;;;;;34.70;14.50;;;5.40;99.90;;;;;;5055107;28;20066;-84
2021/03/02 06:19:16;;;;;;;113.72;17.25;;;5.40;99.90;;;;;;5053751;28;20368;-84
2021/03/02 06:21:42;;;;;;;78.47;15.40;;;5.40;99.90;;;;;;5070989;28;20037;-85
2021/03/02 06:24:09;;;;;;;181.45;18.13;;;5.40;99.90;;;;;;5070323;28;20066;-84
2021/03/02 06:26:37;;;;;;;208.45;17.60;;;5.30;99.90;;;;;;5069995;28;20054;-84
2021/03/02 06:29:16;;;;;;;154.18;17.65;;;5.10;99.90;;;;;;5070579;28;20025;-84
2021/03/02 06:31:46;;;;;;;259.17;20.67;;;5.00;99.90;;;;;;5070172;28;20021;-84
2021/03/02 06:34:16;;;;;;;;;;;5.00;99.90;;;;;;5055540;28;20116;-82
2021/03/02 06:37:03;;;;;;;232.25;18.88;;;5.10;99.90;;;;;;5072212;28;20292;-84
2021/03/02 06:39:40;;;;;;;121.70;15.05;;;5.10;99.90;;;;;;5072457;28;20078;-84
2021/03/02 06:42:22;;;;;;;96.05;14.95;;;5.00;99.90;;;;;;5053410;28;20037;-84
2021/03/02 06:44:49;;;;;;;65.90;13.18;;;4.90;99.90;;;;;;5069925;28;20078;-84
2021/03/02 06:47:39;;;;;;;102.40;14.18;;;4.90;99.90;;;;;;5069801;28;20510;-84
2021/03/02 06:50:25;;;;;;;60.88;11.63;;;4.90;99.90;;;;;;5070697;28;20029;-84
2021/03/02 06:52:51;;;;;;;31.15;12.98;;;4.90;99.90;;;;;;5052949;28;20036;-80
2021/03/02 06:55:17;;;;;;;73.30;11.65;;;4.90;99.90;;;;;;5069717;28;20088;-84
2021/03/02 06:57:44;;;;;;;65.03;12.25;;;4.90;99.80;;;;;;5071328;28;20111;-83
2021/03/02 07:00:11;;;;;;;34.60;11.60;;;4.80;99.80;;;;;;5069851;28;20035;-82
2021/03/02 07:02:39;;;;;;;80.68;12.88;;;4.80;99.90;;;;;;5053415;28;20086;-83
2021/03/02 07:05:06;;;;;;;90.63;13.25;;;4.80;99.90;;;;;;5070069;28;20412;-84
2021/03/02 07:07:32;;;;;;;142.07;14.10;;;4.80;99.90;;;;;;5070046;28;20028;-85
2021/03/02 07:10:00;;;;;;;54.63;13.05;;;4.80;99.90;;;;;;5071339;28;20028;-84
2021/03/02 07:12:31;;;;;;;68.10;12.77;;;4.70;99.90;;;;;;5070598;28;20028;-82
2021/03/02 07:14:58;;;;;;;114.82;13.40;;;4.70;99.90;;;;;;5071872;28;20021;-83
2021/03/02 07:17:24;;;;;;;158.93;16.05;;;4.80;99.90;;;;;;5070054;28;20047;-85
2021/03/02 07:19:51;;;;;;;253.90;21.90;;;4.80;99.90;;;;;;5053451;28;20368;-84
2021/03/02 07:22:17;;;;;;;203.02;16.83;;;4.70;99.90;;;;;;5070469;28;20029;-85
2021/03/02 07:24:44;;;;;;;206.43;16.83;;;4.80;99.90;;;;;;5051692;28;20043;-85
2021/03/02 07:27:10;;;;;;;175.02;15.63;;;4.70;99.90;;;;;;5052706;28;20039;-84
2021/03/02 07:29:38;;;;;;;235.18;15.40;;;4.70;99.90;;;;;;5069245;28;20035;-84
2021/03/02 07:32:04;;;;;;;135.52;14.70;;;4.80;99.90;;;;;;5069392;28;20024;-83
2021/03/02 07:34:30;;;;;;;234.25;15.98;;;4.80;99.90;;;;;;5071326;28;20112;-82
2021/03/02 07:36:56;;;;;;;194.80;15.07;;;4.80;99.90;;;;;;5052936;28;20028;-85
2021/03/02 07:39:24;;;;;;;130.05;14.55;;;4.80;99.90;;;;;;5036544;28;20044;-84
2021/03/02 07:41:54;;;;;;;108.90;13.80;;;4.70;99.90;;;;;;5053607;28;20031;-83
2021/03/02 07:44:20;;;;;;;89.75;14.98;;;4.70;99.90;;;;;;5053358;28;20123;-83
2021/03/02 07:46:52;;;;;;;104.70;12.98;;;4.70;99.90;;;;;;5052701;28;20036;-81
2021/03/02 07:49:36;;;;;;;88.88;13.32;;;4.80;99.90;;;;;;5068768;28;20036;-83
2021/03/02 07:52:05;;;;;;;122.45;14.88;;;4.90;99.90;;;;;;5052482;28;20585;-83
2021/03/02 07:54:35;;;;;;;97.15;12.73;;;5.00;99.90;;;;;;5067883;28;20134;-84
2021/03/02 07:57:16;;;;;;;126.88;13.45;;;5.00;99.90;;;;;;5052424;28;20052;-84
2021/03/02 07:59:46;;;;;;;120.20;14.13;;;5.00;99.90;;;;;;5068990;28;20483;-85
2021/03/02 08:02:19;;;;;;;75.65;13.80;;;5.10;99.90;;;;;;5068619;28;20024;-82
2021/03/02 08:04:49;;;;;;;136.02;16.48;;;5.20;99.90;;;;;;5068284;28;20025;-84
2021/03/02 08:07:21;;;;;;;164.05;16.80;;;5.20;99.90;;;;;;5052643;28;20028;-84
2021/03/02 08:09:48;;;;;;;96.05;15.98;;;5.20;99.80;;;;;;5067876;28;20036;-83
2021/03/02 08:12:25;;;;;;;182.27;18.67;;;5.20;99.90;;;;;;5067949;28;20051;-83
2021/03/02 08:14:51;;;;;;;128.95;15.48;;;5.30;99.90;;;;;;5068303;28;20115;-85
2021/03/02 08:17:22;;;;;;;94.03;16.52;;;5.30;99.90;;;;;;5067916;28;20427;-84
2021/03/02 08:20:00;;;;;;;155.45;16.23;;;5.40;99.90;;;;;;5069544;28;20029;-82
2021/03/02 08:22:30;;;;;;;167.77;18.43;;;5.50;99.90;;;;;;5051154;28;20036;-84
2021/03/02 08:25:02;;;;;;;159.95;16.75;;;5.50;99.80;;;;;;5068479;28;20290;-84
2021/03/02 08:27:48;;;;;;;89.50;15.02;;;5.50;99.70;;;;;;5068782;28;20043;-83
2021/03/02 08:30:18;;;;;;;65.40;15.85;;;5.50;99.80;;;;;;5068852;28;20115;-84
2021/03/02 08:32:44;;;;;;;;;;;5.60;99.90;;;;;;5068528;28;20048;-82
2021/03/02 08:35:17;;;;;;;77.47;17.58;;;5.70;99.90;;;;;;5068950;28;19952;-84
2021/03/02 08:37:48;;;;;;;79.32;16.52;;;5.80;99.90;;;;;;5051522;28;20484;-86
2021/03/02 08:40:36;;;;;;;121.63;18.58;;;5.90;99.90;;;;;;5067511;28;20052;-84
2021/03/02 08:43:16;;;;;;;107.78;17.23;;;6.00;99.90;;;;;;5066488;28;20119;-84
2021/03/02 08:45:51;;;;;;;85.70;17.27;;;6.00;99.90;;;;;;5069054;28;20078;-84
2021/03/02 08:48:18;;;;;;;39.47;15.50;;;6.00;99.90;;;;;;5050523;28;20032;-83
2021/03/02 08:50:45;;;;;;;59.42;17.10;;;6.00;99.90;;;;;;5067594;28;20048;-84
2021/03/02 08:53:48;;;;;;;113.15;18.88;;;6.10;99.90;;;;;;5069164;28;20021;-78
2021/03/02 08:56:21;;;;;;;68.63;17.98;;;6.20;99.80;;;;;;5067727;28;20028;-83
2021/03/02 08:58:51;;;;;;;43.75;16.73;;;6.10;99.70;;;;;;5068237;28;20107;-83
2021/03/02 09:01:26;;;;;;;79.82;17.00;;;6.10;99.70;;;;;;5067166;28;20128;-82
2021/03/02 09:04:04;;;;;;;137.63;18.15;;;6.10;99.80;;;;;;5050716;28;20169;-83
2021/03/02 09:06:30;;;;;;;192.02;22.35;;;6.20;99.80;;;;;;5067781;28;20066;-83
2021/03/02 09:09:04;;;;;;;120.22;19.95;;;6.30;99.40;;;;;;5050926;28;20494;-84
2021/03/02 09:11:41;;;;;;;96.80;17.95;;;6.30;99.50;;;;;;5067081;28;20028;-85
2021/03/02 09:14:12;;;;;;;113.93;18.30;;;6.30;99.50;;;;;;5050588;28;20086;-83
2021/03/02 09:16:44;;;;;;;105.20;18.20;;;6.40;99.60;;;;;;5067170;28;20028;-84
2021/03/02 09:19:11;;;;;;;67.78;16.33;;;6.40;99.60;;;;;;5066719;28;20471;-83
2021/03/02 09:21:42;;;;;;;62.95;18.48;;;6.40;99.60;;;;;;5068055;28;20029;-85
2021/03/02 09:24:11;;;;;;;63.20;16.60;;;6.50;99.80;;;;;;5068209;28;20031;-84
2021/03/02 09:26:37;;;;;;;76.30;16.03;;;6.60;99.90;;;;;;5067060;28;20044;-83
2021/03/02 09:29:06;;;;;;;88.43;17.92;;;6.70;99.80;;;;;;5051704;28;20086;-83
2021/03/02 09:31:32;;;;;;;81.07;18.02;;;6.90;99.70;;;;;;5067602;28;20028;-85
2021/03/02 09:33:59;;;;;;;61.53;17.33;;;7.00;99.70;;;;;;5066647;28;20025;-84
2021/03/02 09:36:28;;;;;;;105.55;20.52;;;7.00;99.60;;;;;;5067865;28;20063;-82
2021/03/02 09:38:55;;;;;;;139.52;19.90;;;7.10;99.60;;;;;;5067223;28;20475;-84
2021/03/02 09:41:34;;;;;;;86.57;19.63;;;7.10;99.40;;;;;;5066604;28;20056;-84
2021/03/02 09:44:23;;;;;;;79.97;20.10;;;7.10;99.30;;;;;;5067410;28;20050;-83
2021/03/02 09:46:50;;;;;;;104.07;20.75;;;7.20;99.30;;;;;;5067169;28;20028;-82
2021/03/02 09:49:39;;;;;;;124.90;22.95;;;7.20;99.30;;;;;;5054402;28;20028;-85
2021/03/02 09:52:26;;;;;;;58.40;21.08;;;7.20;99.30;;;;;;5071006;28;20052;-84
2021/03/02 09:55:11;;;;;;;44.03;19.67;;;7.30;99.30;;;;;;5071667;28;20037;-84
2021/03/02 09:58:11;;;;;;;42.10;20.83;;;7.40;99.40;;;;;;5070007;28;20028;-84
2021/03/02 10:00:49;;;;;;;66.60;23.08;;;7.40;99.40;;;;;;5071091;28;20043;-85
2021/03/02 10:03:26;;;;;;;57.38;21.60;;;7.50;99.20;;;;;;5071181;28;20052;-83
2021/03/02 10:05:52;;;;;;;60.78;20.98;;;7.60;99.10;;;;;;5072201;28;20047;-82
2021/03/02 10:08:34;;;;;;;57.67;22.35;;;7.60;99.20;;;;;;5073673;28;20040;-84
2021/03/02 10:11:15;;;;;;;81.82;21.95;;;7.60;99.40;;;;;;5072921;28;20055;-82
2021/03/02 10:13:59;;;;;;;43.95;21.80;;;7.70;99.30;;;;;;5071810;28;20054;-83
2021/03/02 10:16:35;;;;;;;45.95;21.75;;;7.80;99.20;;;;;;5070584;28;20440;-83
2021/03/02 10:19:23;;;;;;;43.03;21.95;;;8.00;99.30;;;;;;5070930;28;20025;-83
2021/03/02 10:21:55;;;;;;;44.08;21.92;;;8.10;99.20;;;;;;5070494;28;20032;-84
2021/03/02 10:24:37;;;;;;;50.47;23.58;;;8.30;99.10;;;;;;5053908;28;20032;-85
2021/03/02 10:27:09;;;;;;;43.75;21.95;;;8.40;99.00;;;;;;5069586;28;20079;-83
2021/03/02 10:29:35;;;;;;;43.03;22.40;;;8.50;98.90;;;;;;5071301;28;20253;-83
2021/03/02 10:32:04;;;;;;;46.58;23.42;;;8.60;99.00;;;;;;5069603;28;20027;-82
2021/03/02 10:34:34;;;;;;;52.17;26.23;;;8.70;98.90;;;;;;5037516;28;20025;-83
2021/03/02 10:37:03;;;;;;;46.75;24.45;;;8.80;98.80;;;;;;5069731;28;20056;-85
2021/03/02 10:39:29;;;;;;;48.15;25.42;;;9.00;98.90;;;;;;5037222;28;20037;-84
2021/03/02 10:41:55;;;;;;;55.28;28.63;;;9.10;98.80;;;;;;5052429;28;20127;-84
2021/03/02 10:44:24;;;;;;;54.63;27.75;;;9.20;98.60;;;;;;5071350;28;20020;-86
2021/03/02 10:46:49;;;;;;;57.72;29.77;;;9.30;98.50;;;;;;5069541;28;20050;-84
2021/03/02 10:49:15;;;;;;;56.28;29.58;;;9.40;98.40;;;;;;5052895;28;20519;-86
2021/03/02 10:51:41;;;;;;;60.20;30.13;;;9.60;98.40;;;;;;5052316;28;20073;-86
2021/03/02 10:54:07;;;;;;;60.10;28.67;;;9.70;98.40;;;;;;5069017;28;20036;-85
2021/03/02 10:56:33;;;;;;;50.25;26.00;;;9.90;98.50;;;;;;5069051;28;20030;-83
2021/03/02 10:58:59;;;;;;;56.70;29.20;;;10.00;98.40;;;;;;5069133;28;20502;-85
2021/03/02 11:01:25;;;;;;;60.70;32.33;;;10.20;98.30;;;;;;5069309;28;20025;-84
2021/03/02 11:03:51;;;;;;;63.75;30.98;;;10.40;98.10;;;;;;5069005;28;20613;-84
2021/03/02 11:06:24;;;;;;;60.28;29.95;;;10.50;97.90;;;;;;5069122;28;20020;-88
2021/03/02 11:08:51;;;;;;;62.47;32.88;;;10.60;98.00;;;;;;5070277;28;20030;-87
2021/03/02 11:11:17;;;;;;;52.20;28.98;;;10.70;97.80;;;;;;5035991;28;20039;-85
2021/03/02 11:13:43;;;;;;;58.00;31.30;;;10.80;98.10;;;;;;5036402;28;20032;-85
2021/03/02 11:16:10;;;;;;;56.38;30.60;;;10.90;98.10;;;;;;5068240;28;20052;-85
2021/03/02 11:18:36;;;;;;;57.22;31.55;;;11.20;98.20;;;;;;5052856;28;20074;-86
2021/03/02 11:21:02;;;;;;;53.58;30.33;;;11.40;97.80;;;;;;5070888;28;20096;-85
2021/03/02 11:23:28;;;;;;;57.33;30.02;;;11.60;97.60;;;;;;5051999;28;20120;-85
2021/03/02 11:25:54;;;;;;;55.45;31.25;;;11.80;97.40;;;;;;5069011;28;20103;-87
2021/03/02 11:28:20;;;;;;;60.85;32.63;;;12.00;97.10;;;;;;5069655;28;20078;-85
2021/03/02 11:30:46;;;;;;;71.50;35.55;;;12.20;96.80;;;;;;5069206;28;20047;-85
2021/03/02 11:33:13;;;;;;;65.20;33.28;;;12.30;96.60;;;;;;5070932;28;20020;-84
2021/03/02 11:35:40;;;;;;;62.65;35.35;;;12.40;96.60;;;;;;5036028;28;20033;-85
2021/03/02 11:38:07;;;;;;;62.90;33.33;;;12.70;96.50;;;;;;5068659;28;20033;-84
2021/03/02 11:40:33;;;;;;;68.22;36.00;;;12.70;96.10;;;;;;5071837;28;20130;-86
2021/03/02 11:43:00;;;;;;;66.97;36.50;;;12.70;95.60;;;;;;5070299;28;20044;-85
2021/03/02 11:45:27;;;;;;;64.75;35.63;;;12.60;95.40;;;;;;5069341;28;20024;-86
2021/03/02 11:47:54;;;;;;;65.65;36.33;;;12.60;95.70;;;;;;5070769;28;20050;-85
2021/03/02 11:50:20;;;;;;;68.63;38.42;;;12.70;95.60;;;;;;5070305;28;20020;-86
2021/03/02 11:52:47;;;;;;;67.45;38.22;;;12.80;95.50;;;;;;5068940;28;20035;-86
2021/03/02 11:55:16;;;;;;;67.13;38.13;;;13.00;95.20;;;;;;5069954;28;20025;-85
2021/03/02 11:57:43;;;;;;;63.65;35.33;;;13.10;95.00;;;;;;5053709;28;20051;-85
2021/03/02 12:00:17;;;;;;;64.03;34.30;;;13.60;95.60;;;;;;5052404;28;20554;-84
2021/03/02 12:02:44;;;;;;;67.65;37.05;;;14.10;94.40;;;;;;5070768;28;20040;-86
2021/03/02 12:05:10;;;;;;;65.30;35.03;;;14.40;93.90;;;;;;5069132;28;20049;-87
2021/03/02 12:07:36;;;;;;;58.17;35.55;;;14.60;93.30;;;;;;5070694;28;20032;-88
2021/03/02 12:10:15;;;;;;;65.60;36.45;;;14.80;92.80;;;;;;5069510;28;20032;-86
2021/03/02 12:12:42;;;;;;;65.72;36.92;;;14.90;92.10;;;;;;5071432;28;20020;-86
2021/03/02 12:15:09;;;;;;;63.90;35.70;;;14.90;91.60;;;;;;5070758;28;20446;-86
2021/03/02 12:17:35;;;;;;;63.28;34.80;;;14.70;91.40;;;;;;5070235;28;20029;-84
2021/03/02 12:20:02;;;;;;;72.93;36.78;;;15.00;92.50;;;;;;5052520;28;20024;-86
2021/03/02 12:22:28;;;;;;;59.50;34.38;;;15.50;91.70;;;;;;5070718;28;20029;-86
2021/03/02 12:24:53;;;;;;;66.25;35.50;;;15.40;90.40;;;;;;5069872;28;20048;-89
2021/03/02 12:27:19;;;;;;;62.90;35.60;;;15.30;90.20;;;;;;5052879;28;20090;-85
2021/03/02 12:29:45;;;;;;;67.45;38.58;;;15.00;89.50;;;;;;5068138;28;20361;-84
2021/03/02 12:32:11;;;;;;;65.07;36.75;;;14.70;88.80;;;;;;5069318;28;20451;-86
2021/03/02 12:34:37;;;;;;;60.65;36.05;;;14.40;89.50;;;;;;5069866;28;20063;-86
2021/03/02 12:37:04;;;;;;;66.05;36.08;;;14.50;90.60;;;;;;5051793;28;20057;-85
2021/03/02 12:39:29;;;;;;;63.47;35.72;;;14.90;91.10;;;;;;5052226;28;20029;-85
2021/03/02 12:41:56;;;;;;;59.33;34.92;;;15.50;91.40;;;;;;5069045;28;20491;-85